Time;durP1;ratioP1;P1;durP2;ratioP2;P2;SDS_P1;SDS_P2;PMS_P1;PMS_P2;Temp;Humidity;BMP_temperature;BMP_pressure;BME280_temperature;BME280_humidity;BME280_pressure;Samples;Min_cycle;Max_cycle;Signal;HPM_P1;HPM_P2
2022/10/26 00:01:43;;;;;;;11.75;6.78;;;;;;;11.64;100.00;100421.63;5036226;28;20049;-74
2022/10/26 00:04:10;;;;;;;13.02;6.75;;;;;;;11.59;100.00;100413.91;5036343;28;20057;-72
2022/10/26 00:06:37;;;;;;;10.18;6.72;;;;;;;11.59;100.00;100408.59;5035916;28;20568;-71
2022/10/26 00:09:05;;;;;;;11.52;7.32;;;;;;;11.58;100.00;100410.41;5041977;28;20053;-72
2022/10/26 00:11:31;;;;;;;11.65;6.80;;;;;;;11.59;100.00;100409.47;5032603;28;20051;-72
2022/10/26 00:13:58;;;;;;;14.77;6.80;;;;;;;11.48;100.00;100393.25;5029477;28;20048;-72
2022/10/26 00:16:26;;;;;;;10.70;6.85;;;;;;;11.62;100.00;100418.19;5039245;28;20041;-72
2022/10/26 00:18:53;;;;;;;12.75;6.82;;;;;;;11.60;100.00;100416.47;5042508;28;20040;-73
2022/10/26 00:21:19;;;;;;;14.13;6.40;;;;;;;11.57;100.00;100407.81;5041771;28;20066;-73
2022/10/26 00:23:46;;;;;;;11.85;6.90;;;;;;;11.54;100.00;100416.78;5020890;28;20082;-73
2022/10/26 00:26:13;;;;;;;13.70;6.78;;;;;;;11.43;100.00;100391.75;5038660;28;22184;-71
2022/10/26 00:28:40;;;;;;;10.82;6.82;;;;;;;11.56;100.00;100422.00;5044093;28;20563;-71
2022/10/26 00:31:14;;;;;;;11.48;6.75;;;;;;;11.51;100.00;100421.38;5043193;28;20146;-71
2022/10/26 00:33:41;;;;;;;12.27;7.47;;;;;;;11.51;100.00;100416.06;5042373;28;20051;-72
2022/10/26 00:36:08;;;;;;;10.35;6.82;;;;;;;11.58;100.00;100426.31;5043458;28;20124;-72
2022/10/26 00:38:36;;;;;;;9.50;6.25;;;;;;;11.58;100.00;100426.31;5041142;28;20087;-71
2022/10/26 00:41:03;;;;;;;12.65;6.55;;;;;;;11.62;100.00;100421.72;5045079;28;20128;-71
2022/10/26 00:43:29;;;;;;;9.60;6.47;;;;;;;11.68;100.00;100420.53;5036987;28;20037;-71
2022/10/26 00:45:58;;;;;;;14.80;7.40;;;;;;;11.69;100.00;100406.31;5038284;28;20497;-73
2022/10/26 00:48:28;;;;;;;12.10;7.72;;;;;;;11.69;100.00;100415.13;5026416;28;20052;-73
2022/10/26 00:50:58;;;;;;;13.55;6.68;;;;;;;11.67;100.00;100410.84;5041415;28;20041;-73
2022/10/26 00:53:26;;;;;;;12.25;6.30;;;;;;;11.62;100.00;100408.44;5037910;28;20136;-73
2022/10/26 00:55:53;;;;;;;12.70;6.40;;;;;;;11.70;100.00;100416.84;5044203;28;20083;-72
2022/10/26 00:58:22;;;;;;;11.50;6.43;;;;;;;11.76;100.00;100411.28;5043047;28;20132;-72
2022/10/26 01:00:49;;;;;;;12.77;6.32;;;;;;;11.67;100.00;100400.22;5042118;28;20041;-72
2022/10/26 01:03:16;;;;;;;12.93;6.68;;;;;;;11.75;100.00;100420.16;5035908;28;20564;-72
2022/10/26 01:05:46;;;;;;;9.23;6.43;;;;;;;11.76;100.00;100419.25;5043081;28;20044;-72
2022/10/26 01:08:15;;;;;;;10.80;6.18;;;;;;;11.79;100.00;100419.09;5048069;28;20488;-72
2022/10/26 01:10:42;;;;;;;12.43;6.53;;;;;;;11.85;100.00;100408.13;5043361;28;20417;-71
2022/10/26 01:13:10;;;;;;;10.95;6.82;;;;;;;11.82;100.00;100412.75;5040245;28;20061;-71
2022/10/26 01:16:04;;;;;;;10.77;6.60;;;;;;;11.82;100.00;100407.44;5040408;28;20425;-74
2022/10/26 01:18:36;;;;;;;11.15;6.68;;;;;;;11.82;100.00;100408.28;5042622;28;20424;-74
2022/10/26 01:21:06;;;;;;;11.63;6.03;;;;;;;11.79;100.00;100405.81;5041636;28;20045;-71
2022/10/26 01:23:55;;;;;;;12.43;6.40;;;;;;;11.70;100.00;100387.69;5037152;28;21115;-72
2022/10/26 01:26:59;;;;;;;13.45;6.47;;;;;;;11.71;100.00;100402.66;5039845;28;20055;-71
2022/10/26 01:29:38;;;;;;;16.17;6.82;;;;;;;11.68;100.00;100394.00;4968411;28;20085;-73
2022/10/26 01:32:28;;;;;;;13.25;6.97;;;;;;;11.69;100.00;100396.56;5031027;28;20052;-71
2022/10/26 01:35:07;;;;;;;11.07;6.60;;;;;;;11.68;100.00;100399.31;5033692;28;20052;-73
2022/10/26 01:37:41;;;;;;;14.70;7.38;;;;;;;11.66;100.00;100404.69;5044338;28;20049;-70
2022/10/26 01:40:20;;;;;;;9.93;6.70;;;;;;;11.60;100.00;100395.25;5039299;28;20613;-73
2022/10/26 01:42:52;;;;;;;14.80;7.00;;;;;;;11.57;100.00;100398.06;5035629;28;20064;-72
2022/10/26 01:45:18;;;;;;;12.65;6.57;;;;;;;11.62;100.00;100402.28;5036511;28;20045;-72
2022/10/26 01:47:46;;;;;;;10.82;6.13;;;;;;;11.58;100.00;100391.81;5039545;28;20140;-73
2022/10/26 01:50:15;;;;;;;10.32;6.32;;;;;;;11.63;100.00;100393.41;5045369;28;20048;-70
2022/10/26 01:52:42;;;;;;;9.73;6.85;;;;;;;11.69;100.00;100385.09;5042114;28;20504;-72
2022/10/26 01:55:43;;;;;;;9.65;6.25;;;;;;;11.74;100.00;100391.03;5035208;28;20124;-73
2022/10/26 01:58:43;;;;;;;13.98;6.63;;;;;;;11.77;100.00;100394.44;5037087;28;20037;-71
2022/10/26 02:01:41;;;;;;;11.95;7.05;;;;;;;11.77;100.00;100393.56;5040267;28;20052;-71
2022/10/26 02:04:29;;;;;;;13.35;6.30;;;;;;;11.64;100.00;100360.63;5016981;28;20107;-71
2022/10/26 02:07:14;;;;;;;11.60;6.40;;;;;;;11.78;100.00;100377.56;5035927;28;20049;-73
2022/10/26 02:09:50;;;;;;;11.18;5.75;;;;;;;11.69;100.00;100374.50;5036834;28;20037;-73
2022/10/26 02:12:48;;;;;;;8.98;5.70;;;;;;;11.75;100.00;100393.63;5035599;28;20051;-71
2022/10/26 02:15:21;;;;;;;9.15;5.80;;;;;;;11.79;100.00;100378.44;5033408;28;20056;-71
2022/10/26 02:17:59;;;;;;;12.60;5.70;;;;;;;11.83;100.00;100378.19;5044595;28;20057;-71
2022/10/26 02:20:30;;;;;;;9.52;6.00;;;;;;;11.86;100.00;100387.78;5041651;28;20505;-72
2022/10/26 02:23:02;;;;;;;13.45;5.78;;;;;;;11.72;100.00;100358.44;5041586;28;20049;-71
2022/10/26 02:25:33;;;;;;;12.02;5.05;;;;;;;11.70;100.00;100355.00;5038065;28;20562;-71
2022/10/26 02:28:06;;;;;;;11.48;5.85;;;;;;;11.80;100.00;100378.34;5039918;28;20041;-71
2022/10/26 02:30:34;;;;;;;9.85;6.22;;;;;;;11.78;100.00;100376.72;5043878;28;20140;-72
2022/10/26 02:33:03;;;;;;;11.98;6.32;;;;;;;11.79;100.00;100371.34;5040662;28;20060;-71
2022/10/26 02:35:32;;;;;;;9.13;5.53;;;;;;;11.77;100.00;100362.59;5031482;28;20429;-71
2022/10/26 02:38:03;;;;;;;10.75;4.95;;;;;;;11.76;100.00;100365.31;5043242;28;20055;-71
2022/10/26 02:40:32;;;;;;;11.38;5.68;;;;;;;11.78;100.00;100369.63;5037821;28;20059;-72
2022/10/26 02:43:05;;;;;;;13.27;6.03;;;;;;;11.76;100.00;100373.28;5034438;28;20386;-72
2022/10/26 02:46:01;;;;;;;9.00;5.60;;;;;;;11.82;100.00;100363.19;5036151;28;20056;-71
2022/10/26 02:48:28;;;;;;;10.75;5.20;;;;;;;11.82;100.00;100362.34;5035324;28;20155;-72
2022/10/26 02:51:22;;;;;;;11.43;5.90;;;;;;;11.73;100.00;100329.16;5042894;28;20499;-72
2022/10/26 02:54:02;;;;;;;11.30;5.53;;;;;;;11.90;100.00;100354.84;5035024;28;20048;-72
2022/10/26 02:56:44;;;;;;;13.27;5.20;;;;;;;11.88;100.00;100354.06;5022234;28;20135;-72
2022/10/26 02:59:12;;;;;;;10.48;5.47;;;;;;;11.88;100.00;100375.28;5044204;28;20049;-73
2022/10/26 03:01:40;;;;;;;12.70;5.38;;;;;;;11.76;100.00;100338.78;5042615;28;20386;-72
2022/10/26 03:04:07;;;;;;;7.47;4.90;;;;;;;11.83;100.00;100333.06;5036202;28;20124;-72
2022/10/26 03:06:34;;;;;;;11.77;5.40;;;;;;;11.83;100.00;100324.25;5039511;28;20515;-73
2022/10/26 03:09:00;;;;;;;8.55;5.07;;;;;;;11.84;100.00;100326.81;5028517;28;20050;-71
2022/10/26 03:11:27;;;;;;;7.10;5.07;;;;;;;11.92;100.00;100351.16;5024795;28;20059;-72
2022/10/26 03:13:53;;;;;;;8.20;5.43;;;;;;;11.93;100.00;100341.41;5036475;28;20040;-72
2022/10/26 03:16:20;;;;;;;11.38;5.18;;;;;;;11.83;100.00;100324.25;5035179;28;20069;-72
2022/10/26 03:18:46;;;;;;;9.30;5.43;;;;;;;11.92;100.00;100337.91;5041276;28;20144;-73
2022/10/26 03:21:13;;;;;;;12.52;5.70;;;;;;;11.93;100.00;100342.28;5044998;28;20414;-73
2022/10/26 03:23:40;;;;;;;10.57;5.05;;;;;;;11.90;100.00;100354.84;5037488;28;22688;-73
2022/10/26 03:26:07;;;;;;;11.73;5.72;;;;;;;11.83;100.00;100351.66;5032944;28;20130;-73
2022/10/26 03:28:34;;;;;;;9.68;5.32;;;;;;;11.88;100.00;100365.53;5035812;28;20701;-72
2022/10/26 03:31:00;;;;;;;6.82;4.80;;;;;;;11.88;100.00;100351.41;5042590;28;20037;-72
2022/10/26 03:33:27;;;;;;;13.02;6.07;;;;;;;11.78;100.00;100339.56;5035541;28;20055;-72
2022/10/26 03:35:55;;;;;;;13.18;5.85;;;;;;;11.88;100.00;100359.38;5033984;28;20080;-72
2022/10/26 03:38:22;;;;;;;11.57;6.15;;;;;;;11.84;100.00;100363.97;5036175;28;20179;-73
2022/10/26 03:40:49;;;;;;;11.30;6.32;;;;;;;11.82;100.00;100364.97;5041024;28;20053;-72
2022/10/26 03:43:15;;;;;;;13.57;5.93;;;;;;;11.83;100.00;100369.34;5038015;28;20072;-73
2022/10/26 03:45:42;;;;;;;14.27;6.32;;;;;;;11.89;100.00;100366.38;5031207;28;20049;-72
2022/10/26 03:48:09;;;;;;;12.00;6.25;;;;;;;11.77;100.00;100348.47;5037587;28;20051;-75
2022/10/26 03:50:35;;;;;;;11.32;6.25;;;;;;;11.89;100.00;100369.03;5037694;28;20123;-73
2022/10/26 03:53:02;;;;;;;11.63;6.63;;;;;;;11.89;100.00;100366.38;5035661;28;20052;-74
2022/10/26 03:55:28;;;;;;;8.32;6.18;;;;;;;11.76;100.00;100344.97;5034231;28;20400;-73
2022/10/26 03:57:55;;;;;;;11.10;6.55;;;;;;;11.78;100.00;100344.88;5046115;28;20045;-72
2022/10/26 04:00:22;;;;;;;8.55;6.10;;;;;;;11.92;100.00;100355.63;5040801;28;20057;-73
2022/10/26 04:02:58;;;;;;;8.52;6.07;;;;;;;11.92;100.00;100353.81;5040140;28;20227;-73
2022/10/26 04:05:27;;;;;;;11.10;6.10;;;;;;;11.89;100.00;100361.09;5032429;28;20061;-73
2022/10/26 04:07:58;;;;;;;10.18;6.28;;;;;;;11.84;100.00;100353.34;5041779;28;20136;-72
2022/10/26 04:10:26;;;;;;;13.75;6.60;;;;;;;11.79;100.00;100343.94;5041015;28;20072;-73
2022/10/26 04:12:54;;;;;;;11.30;5.93;;;;;;;11.76;100.00;100338.78;5043461;28;20072;-74
2022/10/26 04:15:21;;;;;;;12.15;6.65;;;;;;;11.72;100.00;100329.25;5036465;28;20052;-74
2022/10/26 04:17:53;;;;;;;12.20;5.50;;;;;;;11.78;100.00;100336.94;5045735;28;20072;-73
2022/10/26 04:20:20;;;;;;;10.35;6.72;;;;;;;11.76;100.00;100344.97;5046477;28;20049;-74
2022/10/26 04:22:47;;;;;;;8.55;5.80;;;;;;;11.76;100.00;100354.72;5039266;28;20114;-74
2022/10/26 04:25:13;;;;;;;11.15;5.80;;;;;;;11.71;100.00;100354.06;5034094;28;20055;-73
2022/10/26 04:27:40;;;;;;;10.38;6.43;;;;;;;11.71;100.00;100354.06;5040432;28;20053;-73
2022/10/26 04:30:08;;;;;;;10.75;5.93;;;;;;;11.63;100.00;100348.31;5043278;28;20053;-73
2022/10/26 04:32:35;;;;;;;11.68;6.60;;;;;;;11.65;100.00;100354.41;5044311;28;20056;-75
2022/10/26 04:35:02;;;;;;;10.50;6.60;;;;;;;11.59;100.00;100359.06;5034983;28;20059;-74
2022/10/26 04:37:28;;;;;;;14.38;6.47;;;;;;;11.58;100.00;100354.69;5039398;28;20135;-74
2022/10/26 04:39:55;;;;;;;13.70;6.95;;;;;;;11.57;100.00;100360.06;5042471;28;20064;-75
2022/10/26 04:42:22;;;;;;;10.85;6.50;;;;;;;11.55;100.00;100362.81;5043855;28;20500;-73
2022/10/26 04:44:48;;;;;;;9.10;6.30;;;;;;;11.53;100.00;100358.50;5038488;28;20350;-73
2022/10/26 04:47:15;;;;;;;10.35;6.70;;;;;;;11.53;100.00;100356.72;5032456;28;20102;-72
2022/10/26 04:49:41;;;;;;;11.93;6.45;;;;;;;11.59;100.00;100353.75;5047714;28;20131;-73
2022/10/26 04:52:08;;;;;;;10.32;6.43;;;;;;;11.57;100.00;100345.03;5040001;28;20045;-75
2022/10/26 04:54:34;;;;;;;11.85;6.43;;;;;;;11.64;100.00;100344.72;5039603;28;20168;-72
2022/10/26 04:57:01;;;;;;;12.45;6.22;;;;;;;11.64;100.00;100342.06;5040908;28;20087;-73
2022/10/26 04:59:27;;;;;;;8.10;5.80;;;;;;;11.68;100.00;100347.09;5045491;28;20633;-72
2022/10/26 05:01:54;;;;;;;11.52;5.75;;;;;;;11.74;100.00;100351.25;5040112;28;20049;-73
2022/10/26 05:04:21;;;;;;;11.38;6.25;;;;;;;11.69;100.00;100347.97;5037203;28;20094;-72
2022/10/26 05:06:47;;;;;;;10.50;6.30;;;;;;;11.68;100.00;100344.44;5038212;28;20703;-74
2022/10/26 05:09:14;;;;;;;9.63;5.97;;;;;;;11.66;100.00;100324.25;5041196;28;20059;-73
2022/10/26 05:11:40;;;;;;;12.68;5.80;;;;;;;11.65;100.00;100330.53;5041703;28;20041;-73
2022/10/26 05:14:08;;;;;;;11.98;5.80;;;;;;;11.66;100.00;100335.72;5052717;28;20046;-72
2022/10/26 05:16:35;;;;;;;8.80;5.78;;;;;;;11.59;100.00;100334.34;5031942;28;20424;-74
2022/10/26 05:19:01;;;;;;;8.07;5.38;;;;;;;11.58;100.00;100343.22;5043330;28;20465;-73
2022/10/26 05:21:28;;;;;;;8.85;5.90;;;;;;;11.54;100.00;100345.19;5041911;28;20060;-74
2022/10/26 05:23:54;;;;;;;8.77;5.55;;;;;;;11.50;100.00;100334.81;5038382;28;20052;-73
2022/10/26 05:26:22;;;;;;;9.57;6.00;;;;;;;11.49;100.00;100335.75;5034704;28;20049;-73
2022/10/26 05:28:50;;;;;;;8.45;5.70;;;;;;;11.39;100.00;100322.09;5040666;28;20155;-74
2022/10/26 05:31:16;;;;;;;12.45;6.40;;;;;;;11.50;100.00;100338.31;5037510;28;20136;-74
2022/10/26 05:33:43;;;;;;;11.57;8.55;;;;;;;11.54;100.00;100349.63;5046910;28;20049;-73
2022/10/26 05:36:09;;;;;;;10.98;6.32;;;;;;;11.54;100.00;100344.31;5034673;28;20423;-73
2022/10/26 05:38:36;;;;;;;9.02;5.90;;;;;;;11.54;100.00;100349.63;5038563;28;20476;-73
2022/10/26 05:41:03;;;;;;;12.15;7.15;;;;;;;11.38;100.00;100324.81;5023570;28;20049;-73
2022/10/26 05:43:29;;;;;;;13.73;6.40;;;;;;;11.51;100.00;100355.94;5042677;28;20063;-73
2022/10/26 05:45:56;;;;;;;9.48;5.90;;;;;;;11.52;100.00;100362.09;5035794;28;20052;-72
2022/10/26 05:48:22;;;;;;;11.63;5.82;;;;;;;11.45;100.00;100345.66;5040529;28;20576;-73
2022/10/26 05:50:49;;;;;;;12.70;5.65;;;;;;;11.58;100.00;100352.03;5044184;28;20048;-74
2022/10/26 05:53:16;;;;;;;10.23;5.63;;;;;;;11.65;100.00;100354.41;5042600;28;20048;-72
2022/10/26 05:55:43;;;;;;;14.50;6.05;;;;;;;11.69;100.00;100366.53;5032784;28;20051;-73
2022/10/26 05:58:11;;;;;;;12.77;6.13;;;;;;;11.68;100.00;100367.47;5040060;28;20131;-73
2022/10/26 06:00:48;;;;;;;11.65;6.63;;;;;;;11.69;100.00;100363.88;5027358;28;20042;-72
2022/10/26 06:04:03;;;;;;;10.02;5.60;;;;;;;11.76;100.00;100360.88;5035166;28;20046;-72
2022/10/26 06:06:40;;;;;;;12.30;5.82;;;;;;;11.78;100.00;100372.28;4953944;28;20065;-73
2022/10/26 06:09:12;;;;;;;9.02;5.25;;;;;;;11.82;100.00;100380.91;5031704;28;20075;-73
2022/10/26 06:11:40;;;;;;;13.23;6.00;;;;;;;11.83;100.00;100378.19;5037472;28;20053;-74
2022/10/26 06:14:08;;;;;;;9.60;5.00;;;;;;;11.57;100.00;100334.41;5041284;28;20064;-72
2022/10/26 06:17:02;;;;;;;9.98;5.13;;;;;;;11.82;100.00;100367.63;5030254;28;20059;-72
2022/10/26 06:19:50;;;;;;;11.13;5.68;;;;;;;11.80;100.00;100364.25;5041023;28;20053;-72
2022/10/26 06:22:26;;;;;;;8.85;5.80;;;;;;;11.76;100.00;100371.50;5034522;28;20053;-72
2022/10/26 06:25:15;;;;;;;11.73;5.90;;;;;;;11.81;100.00;100382.69;5035880;28;20055;-73
2022/10/26 06:27:44;;;;;;;9.73;5.70;;;;;;;11.83;100.00;100393.22;5029543;28;20533;-73
2022/10/26 06:30:11;;;;;;;9.48;5.75;;;;;;;11.85;100.00;100388.72;5036735;28;20056;-72
2022/10/26 06:32:40;;;;;;;11.00;5.72;;;;;;;11.83;100.00;100385.28;5032372;28;20053;-72
2022/10/26 06:35:15;;;;;;;10.68;5.90;;;;;;;11.93;100.00;100405.97;5030165;28;20527;-72
2022/10/26 06:37:44;;;;;;;8.82;5.50;;;;;;;11.94;100.00;100399.72;5038292;28;20088;-72
2022/10/26 06:40:14;;;;;;;9.45;5.88;;;;;;;11.95;100.00;100411.19;5038884;28;20124;-73
2022/10/26 06:42:49;;;;;;;10.15;6.00;;;;;;;11.96;100.00;100418.22;5068339;27;20647;-72
2022/10/26 06:45:16;;;;;;;9.30;5.53;;;;;;;11.98;100.00;100420.75;5057657;28;20044;-73
2022/10/26 06:48:04;;;;;;;8.93;5.95;;;;;;;11.92;100.00;100411.34;5055323;28;20060;-71
2022/10/26 06:50:37;;;;;;;8.50;5.15;;;;;;;11.96;100.00;100412.91;5068749;28;20511;-72
2022/10/26 06:53:08;;;;;;;13.95;9.25;;;;;;;12.06;100.00;100432.72;5063509;28;20055;-72
2022/10/26 06:55:42;;;;;;;9.07;6.30;;;;;;;12.10;100.00;100436.94;5063820;28;20044;-72
2022/10/26 06:58:14;;;;;;;10.98;6.03;;;;;;;12.17;100.00;100443.63;5064275;28;20041;-72
2022/10/26 07:00:43;;;;;;;12.27;6.22;;;;;;;12.19;100.00;100443.53;5061490;28;20049;-72
2022/10/26 07:03:10;;;;;;;10.00;5.30;;;;;;;12.27;100.00;100451.97;5060646;28;20135;-72
2022/10/26 07:05:36;;;;;;;10.40;5.68;;;;;;;12.30;100.00;100446.47;5054852;28;20135;-72
2022/10/26 07:08:03;;;;;;;10.20;5.43;;;;;;;12.39;100.00;100448.66;5052060;28;20610;-71
2022/10/26 07:10:30;;;;;;;7.45;4.80;;;;;;;12.40;100.00;100446.84;5065305;28;20127;-72
2022/10/26 07:12:57;;;;;;;8.30;4.72;;;;;;;12.44;100.00;100453.69;5066025;28;20051;-72
2022/10/26 07:15:24;;;;;;;10.43;5.63;;;;;;;12.41;100.00;100448.56;5057715;28;20064;-72
2022/10/26 07:17:50;;;;;;;13.25;5.95;;;;;;;12.44;100.00;100453.69;5063361;28;20051;-73
2022/10/26 07:20:19;;;;;;;8.07;5.13;;;;;;;12.37;100.00;100433.75;5062191;28;20092;-72
2022/10/26 07:22:55;;;;;;;9.30;5.40;;;;;;;12.43;100.00;100441.38;5056254;28;21548;-73
2022/10/26 07:25:23;;;;;;;9.30;4.82;;;;;;;12.52;100.00;100443.53;5057678;28;20079;-72
2022/10/26 07:27:50;;;;;;;9.73;5.35;;;;;;;12.58;100.00;100456.50;5051147;28;20074;-71
2022/10/26 07:30:17;;;;;;;8.00;5.15;;;;;;;12.58;100.00;100451.19;5062724;28;20135;-74
2022/10/26 07:32:44;;;;;;;11.82;5.50;;;;;;;12.62;100.00;100456.22;5053955;28;20044;-71
2022/10/26 07:35:10;;;;;;;10.55;5.45;;;;;;;12.59;100.00;100450.25;5057768;28;20055;-74
2022/10/26 07:37:37;;;;;;;10.25;4.55;;;;;;;12.64;100.00;100459.66;5052220;28;20049;-73
2022/10/26 07:40:05;;;;;;;8.07;5.32;;;;;;;12.74;100.00;100481.28;5059209;28;20048;-72
2022/10/26 07:42:33;;;;;;;7.88;4.75;;;;;;;12.65;100.00;100474.66;5062434;28;20068;-72
2022/10/26 07:44:59;;;;;;;10.32;5.50;;;;;;;12.79;100.00;100484.53;5062363;28;20496;-72
2022/10/26 07:47:26;;;;;;;12.32;5.38;;;;;;;12.86;100.00;100493.03;5053088;28;20215;-72
2022/10/26 07:49:52;;;;;;;8.73;4.75;;;;;;;12.82;100.00;100487.03;5063013;28;20048;-73
2022/10/26 07:52:19;;;;;;;11.10;5.32;;;;;;;12.92;100.00;100498.00;5061986;28;20072;-72
2022/10/26 07:54:46;;;;;;;9.75;5.78;;;;;;;12.87;100.00;100500.94;5043459;28;20052;-72
2022/10/26 07:57:15;;;;;;;9.90;5.63;;;;;;;12.98;100.00;100503.00;5036082;28;20131;-72
2022/10/26 07:59:42;;;;;;;10.38;5.60;;;;;;;13.08;100.00;100506.00;5047630;28;20052;-73
2022/10/26 08:02:09;;;;;;;6.70;4.90;;;;;;;13.14;100.00;100493.22;5044203;28;20057;-74
2022/10/26 08:04:35;;;;;;;15.05;5.03;;;;;;;13.24;100.00;100493.59;5048099;28;20048;-73
2022/10/26 08:07:02;;;;;;;13.95;5.53;;;;;;;13.33;100.00;100493.09;5038139;28;20057;-72
2022/10/26 08:09:29;;;;;;;10.70;5.85;;;;;;;13.31;100.00;100494.97;5048704;28;20459;-73
2022/10/26 08:11:55;;;;;;;7.85;5.05;;;;;;;13.39;100.00;100505.16;5048961;28;20053;-72
2022/10/26 08:14:22;;;;;;;13.00;6.32;;;;;;;13.40;100.00;100502.41;5049570;28;20047;-73
2022/10/26 08:16:51;;;;;;;9.20;5.20;;;;;;;13.44;100.00;100503.09;5033460;28;20059;-73
2022/10/26 08:19:18;;;;;;;9.23;4.90;;;;;;;13.36;100.00;100484.94;5044012;28;20072;-74
2022/10/26 08:21:45;;;;;;;7.97;5.18;;;;;;;13.50;100.00;100506.28;5043160;28;20059;-73
2022/10/26 08:24:12;;;;;;;7.95;5.25;;;;;;;13.48;100.00;100489.56;5045260;28;20116;-72
2022/10/26 08:26:38;;;;;;;7.70;4.80;;;;;;;13.66;100.00;100493.81;5027661;28;20048;-73
2022/10/26 08:29:05;;;;;;;11.10;5.80;;;;;;;13.81;100.00;100501.84;5046918;28;20537;-73
2022/10/26 08:31:32;;;;;;;8.63;5.30;;;;;;;13.89;100.00;100488.94;5041088;28;20546;-73
2022/10/26 08:33:59;;;;;;;13.60;5.60;;;;;;;14.13;100.00;100506.13;5053731;28;20047;-74
2022/10/26 08:36:26;;;;;;;9.43;5.80;;;;;;;14.16;100.00;100483.78;5041955;28;20045;-72
2022/10/26 08:38:53;;;;;;;12.43;5.97;;;;;;;14.46;100.00;100502.41;5043468;28;20071;-71
2022/10/26 08:41:31;;;;;;;11.85;6.47;;;;;;;14.61;100.00;100501.47;5042776;28;20067;-73
2022/10/26 08:44:11;;;;;;;9.70;5.85;;;;;;;14.79;100.00;100495.00;5052383;28;20058;-72
2022/10/26 08:46:44;;;;;;;10.95;5.95;;;;;;;14.88;100.00;100498.88;5028415;28;20140;-72
2022/10/26 08:49:13;;;;;;;14.55;6.30;;;;;;;14.94;100.00;100502.03;5043228;28;20095;-72
2022/10/26 08:51:41;;;;;;;9.73;5.72;;;;;;;14.94;100.00;100496.69;5038625;28;20128;-72
2022/10/26 08:54:18;;;;;;;15.82;6.82;;;;;;;15.15;100.00;100512.25;5038288;28;20047;-73
2022/10/26 08:56:57;;;;;;;15.35;6.00;;;;;;;15.17;100.00;100502.34;5031709;28;20056;-72
2022/10/26 08:59:39;;;;;;;13.18;6.20;;;;;;;15.19;100.00;100519.13;5056330;28;20045;-74
2022/10/26 09:02:13;;;;;;;14.75;6.68;;;;;;;15.01;100.00;100521.13;5034524;28;20045;-73
2022/10/26 09:04:40;;;;;;;11.45;6.45;;;;;;;14.83;100.00;100501.81;5029368;28;20049;-73
2022/10/26 09:07:13;;;;;;;9.80;5.75;;;;;;;14.93;100.00;100520.78;5033475;28;20041;-73
2022/10/26 09:09:56;;;;;;;15.07;6.22;;;;;;;14.92;100.00;100517.25;5030114;28;20045;-73
2022/10/26 09:12:41;;;;;;;17.20;6.47;;;;;;;14.99;100.00;100528.38;5045220;28;20060;-73
2022/10/26 09:15:18;;;;;;;9.85;6.28;;;;;;;15.06;100.00;100522.56;5042647;28;20204;-72
2022/10/26 09:17:47;;;;;;;11.95;6.63;;;;;;;15.05;100.00;100528.84;5031948;28;20517;-72
2022/10/26 09:20:51;;;;;;;11.07;6.15;;;;;;;14.94;100.00;100531.34;5043561;28;20056;-72
2022/10/26 09:23:54;;;;;;;10.93;6.32;;;;;;;14.97;100.00;100525.78;5039725;28;20052;-72
2022/10/26 09:26:44;;;;;;;18.83;6.60;;;;;;;14.92;100.00;100535.06;5036358;28;20490;-73
2022/10/26 09:29:12;;;;;;;13.95;6.18;;;;;;;14.91;100.00;100539.53;5040267;28;20041;-73
2022/10/26 09:31:43;;;;;;;12.65;5.90;;;;;;;14.93;100.00;100545.63;5043853;28;20103;-72
2022/10/26 09:34:23;;;;;;;11.55;5.97;;;;;;;14.96;100.00;100555.22;5040308;28;20048;-72
2022/10/26 09:36:54;;;;;;;11.13;6.15;;;;;;;15.12;100.00;100560.44;5036730;28;20603;-73
2022/10/26 09:39:43;;;;;;;10.20;5.38;;;;;;;15.22;100.00;100556.28;5044634;28;20477;-73
2022/10/26 09:42:31;;;;;;;12.20;6.15;;;;;;;15.31;100.00;100563.69;5038643;28;20057;-72
2022/10/26 09:45:21;;;;;;;12.30;5.85;;;;;;;15.26;100.00;100557.78;5037419;28;20037;-73
2022/10/26 09:47:55;;;;;;;14.37;6.23;;;;;;;15.33;100.00;100559.09;5030843;28;20149;-72
2022/10/26 09:50:27;;;;;;;10.10;5.78;;;;;;;15.47;100.00;100551.06;5049440;28;20114;-76
2022/10/26 09:52:55;;;;;;;11.18;5.65;;;;;;;15.68;100.00;100556.84;5051122;28;20060;-73
2022/10/26 09:55:22;;;;;;;9.98;5.43;;;;;;;15.93;100.00;100558.75;5042417;28;20337;-74
2022/10/26 09:57:56;;;;;;;10.07;4.85;;;;;;;16.18;100.00;100566.00;5041002;28;20485;-73
2022/10/26 10:00:24;;;;;;;10.77;5.03;;;;;;;16.30;100.00;100558.00;5040420;28;20061;-73
2022/10/26 10:02:54;;;;;;;11.40;5.18;;;;;;;16.52;100.00;100564.56;5043933;28;20459;-74
2022/10/26 10:05:33;;;;;;;9.88;4.60;;;;;;;16.68;100.00;100570.59;5034461;28;20720;-73
2022/10/26 10:08:26;;;;;;;7.32;4.82;;;;;;;16.73;100.00;100561.28;5038278;28;20052;-73
2022/10/26 10:11:12;;;;;;;7.97;3.95;;;;;;;16.61;100.00;100551.41;5034437;28;20133;-71
2022/10/26 10:13:44;;;;;;;14.05;4.28;;;;;;;16.47;100.00;100576.41;5040747;28;20153;-71
2022/10/26 10:16:22;;;;;;;13.00;4.40;;;;;;;16.33;100.00;100573.84;5033696;28;20060;-72
2022/10/26 10:18:58;;;;;;;10.35;4.32;;;;;;;16.30;100.00;100568.69;5037892;28;20052;-71
2022/10/26 10:21:34;;;;;;;11.57;4.55;;;;;;;16.36;100.00;100559.41;5041526;28;20045;-71
2022/10/26 10:24:01;;;;;;;11.23;4.10;;;;;;;16.51;100.00;100550.34;5034265;28;20057;-74
2022/10/26 10:26:27;;;;;;;6.47;3.70;;;;;;;16.73;100.00;100581.81;5035741;28;20641;-71
2022/10/26 10:28:59;;;;;;;6.80;3.95;;;;;;;16.63;100.00;100588.75;5039497;28;20052;-72
2022/10/26 10:31:28;;;;;;;10.23;4.05;;;;;;;16.63;100.00;100591.44;5039624;28;20363;-71
2022/10/26 10:33:55;;;;;;;11.13;4.05;;;;;;;16.66;100.00;100602.78;5036072;28;20079;-71
2022/10/26 10:36:28;;;;;;;7.18;4.05;;;;;;;16.76;100.00;100598.50;5032301;28;20042;-71
2022/10/26 10:38:55;;;;;;;8.35;3.95;;;;;;;16.94;100.00;100592.84;5029042;28;20037;-71
2022/10/26 10:41:36;;;;;;;6.15;3.67;;;;;;;17.13;98.82;100591.44;5039806;28;20084;-72
2022/10/26 10:44:21;;;;;;;9.40;4.18;;;;;;;17.43;96.97;100600.91;5045438;28;20055;-71
2022/10/26 10:46:48;;;;;;;9.07;4.38;;;;;;;17.60;96.56;100616.63;5034313;28;20485;-72
2022/10/26 10:49:23;;;;;;;7.90;4.40;;;;;;;17.42;95.88;100609.91;5036645;28;20132;-72
2022/10/26 10:51:50;;;;;;;7.97;4.45;;;;;;;17.24;97.37;100608.53;5040618;28;20507;-72
2022/10/26 10:54:38;;;;;;;9.75;4.70;;;;;;;17.12;98.78;100608.44;5043097;28;20152;-72
2022/10/26 10:57:24;;;;;;;13.05;4.10;;;;;;;17.08;99.53;100598.91;5031462;28;20144;-72
2022/10/26 11:00:02;;;;;;;10.65;4.60;;;;;;;17.11;99.23;100598.72;5041839;28;20141;-71
2022/10/26 11:02:41;;;;;;;10.00;4.07;;;;;;;17.01;99.43;100586.94;5031590;28;20045;-72
2022/10/26 11:05:58;;;;;;;11.05;4.03;;;;;;;17.05;100.00;100609.84;5044102;28;20049;-72
2022/10/26 11:08:49;;;;;;;7.97;4.20;;;;;;;17.25;100.00;100623.63;4980489;28;20045;-72
2022/10/26 11:11:18;;;;;;;9.23;4.15;;;;;;;17.53;99.49;100634.06;5034703;28;20502;-73
2022/10/26 11:13:54;;;;;;;9.57;4.13;;;;;;;17.87;95.98;100617.28;5044080;28;20051;-72
2022/10/26 11:17:04;;;;;;;8.02;3.70;;;;;;;18.09;95.04;100624.59;5032940;28;20063;-71
2022/10/26 11:19:41;;;;;;;13.20;4.78;;;;;;;18.10;93.57;100614.75;5040363;28;20045;-71
2022/10/26 11:22:15;;;;;;;9.57;4.28;;;;;;;17.79;95.08;100633.06;5042258;28;20053;-70
2022/10/26 11:24:48;;;;;;;5.78;3.63;;;;;;;17.67;97.14;100636.63;5043039;28;20049;-72
2022/10/26 11:27:18;;;;;;;7.93;4.07;;;;;;;17.71;97.52;100622.06;5037208;28;20067;-72
2022/10/26 11:29:57;;;;;;;7.70;3.70;;;;;;;17.75;96.64;100610.16;5045539;28;20049;-72
2022/10/26 11:32:39;;;;;;;10.15;4.25;;;;;;;17.97;96.48;100636.22;5047266;28;20496;-71
2022/10/26 11:35:18;;;;;;;17.58;4.43;;;;;;;18.07;96.53;100631.91;5039299;28;20061;-72